Time;durP1;ratioP1;P1;durP2;ratioP2;P2;SDS_P1;SDS_P2;PMS_P1;PMS_P2;Temp;Humidity;BMP_temperature;BMP_pressure;BME280_temperature;BME280_humidity;BME280_pressure;Samples;Min_cycle;Max_cycle;Signal;HPM_P1;HPM_P2
2022/07/26 03:22:39;;;;;;;14.50;13.40;;;21.20;99.90;;;;;;6048607;23;20563;31
2022/07/26 03:25:08;;;;;;;13.53;12.97;;;21.20;99.90;;;;;;4909992;29;20486;-75
2022/07/26 03:27:35;;;;;;;14.00;13.40;;;21.20;99.90;;;;;;4911470;29;20471;-75
2022/07/26 03:30:02;;;;;;;13.77;13.00;;;21.30;99.90;;;;;;4913944;29;20683;-75
2022/07/26 03:32:28;;;;;;;13.20;12.60;;;21.40;99.90;;;;;;4914233;29;20447;-74
2022/07/26 03:34:55;;;;;;;13.17;12.67;;;21.40;99.90;;;;;;4914400;29;20465;-75
2022/07/26 03:37:22;;;;;;;12.40;11.90;;;21.40;99.90;;;;;;4914027;29;20465;-74
2022/07/26 03:39:49;;;;;;;13.20;12.70;;;21.40;99.90;;;;;;4914158;29;20450;-74
2022/07/26 03:42:17;;;;;;;13.60;13.00;;;21.40;99.90;;;;;;4913535;29;20466;-76
2022/07/26 03:44:43;;;;;;;12.57;12.07;;;21.40;99.90;;;;;;4914111;29;20521;-75
2022/07/26 03:47:10;;;;;;;12.47;11.60;;;21.50;99.90;;;;;;4914291;29;20446;-74
2022/07/26 03:49:37;;;;;;;11.60;11.10;;;21.40;99.90;;;;;;4913858;29;20461;-75
2022/07/26 03:52:04;;;;;;;12.50;12.00;;;21.40;99.90;;;;;;4914021;29;20470;-74
2022/07/26 03:54:30;;;;;;;12.97;12.10;;;21.40;99.90;;;;;;4913773;29;20461;-74
2022/07/26 03:56:56;;;;;;;11.90;11.40;;;21.40;99.90;;;;;;4913723;29;20462;-74
2022/07/26 03:59:24;;;;;;;12.63;12.10;;;21.40;99.90;;;;;;4913834;29;20451;-75
2022/07/26 04:01:52;;;;;;;12.50;12.00;;;21.30;99.90;;;;;;4913998;29;20237;-74
2022/07/26 04:04:18;;;;;;;12.70;12.10;;;21.40;99.90;;;;;;4913769;29;20442;-73
2022/07/26 04:06:46;;;;;;;13.70;12.73;;;21.40;99.90;;;;;;4913521;29;20494;-74
2022/07/26 04:09:13;;;;;;;13.10;12.40;;;21.40;99.90;;;;;;4913645;29;20458;-73
2022/07/26 04:11:41;;;;;;;13.90;13.30;;;21.40;99.90;;;;;;4914328;29;20446;-73
2022/07/26 04:14:08;;;;;;;12.97;12.47;;;21.40;99.90;;;;;;4914326;29;20558;-74
2022/07/26 04:16:36;;;;;;;11.33;10.93;;;21.50;99.90;;;;;;4913543;29;20953;-74
2022/07/26 04:19:03;;;;;;;12.77;12.17;;;21.40;99.90;;;;;;4913560;29;20462;-74
2022/07/26 04:21:30;;;;;;;13.30;12.60;;;21.40;99.90;;;;;;4913194;29;21003;-80
2022/07/26 04:23:56;;;;;;;14.00;13.00;;;21.40;99.90;;;;;;4901425;29;20483;-72
2022/07/26 04:26:23;;;;;;;13.03;12.53;;;21.40;99.90;;;;;;4894846;29;20510;-72
2022/07/26 04:28:50;;;;;;;14.43;13.80;;;21.40;99.90;;;;;;4894467;29;20459;-72
2022/07/26 04:31:17;;;;;;;11.40;10.90;;;21.40;99.90;;;;;;4894182;29;20451;-72
2022/07/26 04:33:45;;;;;;;13.60;13.00;;;21.40;99.90;;;;;;4894359;29;20463;-72
2022/07/26 04:36:12;;;;;;;11.73;11.33;;;21.50;99.90;;;;;;4894513;29;20835;-72
2022/07/26 04:38:38;;;;;;;12.20;11.50;;;21.60;99.90;;;;;;4894920;29;20487;-73
2022/07/26 04:41:06;;;;;;;13.03;12.40;;;21.70;99.90;;;;;;4894349;29;20806;-73
2022/07/26 04:43:32;;;;;;;13.00;12.10;;;21.80;99.90;;;;;;4894496;29;20671;-72
2022/07/26 04:45:59;;;;;;;12.27;11.77;;;21.80;99.90;;;;;;4894281;29;20487;-72
2022/07/26 04:48:26;;;;;;;13.50;13.00;;;21.80;99.90;;;;;;4894825;29;20459;-72
2022/07/26 04:50:54;;;;;;;12.60;12.20;;;21.80;99.90;;;;;;4892555;29;20451;-73
2022/07/26 04:53:21;;;;;;;12.63;12.13;;;21.80;99.90;;;;;;4894251;29;20941;-72
2022/07/26 04:55:48;;;;;;;11.20;10.70;;;21.80;99.90;;;;;;4897320;29;20993;-72
2022/07/26 04:58:14;;;;;;;13.00;12.50;;;21.90;99.90;;;;;;4898318;29;20459;-72
2022/07/26 05:00:44;;;;;;;12.37;11.67;;;22.00;99.90;;;;;;4898665;29;20462;-72
2022/07/26 05:03:10;;;;;;;12.70;12.10;;;22.10;99.90;;;;;;4897911;29;20481;-72
2022/07/26 05:05:37;;;;;;;13.73;13.00;;;22.30;99.90;;;;;;4897991;29;20831;-73
2022/07/26 05:08:05;;;;;;;12.47;11.97;;;22.60;99.90;;;;;;4897939;29;20451;-72
2022/07/26 05:10:34;;;;;;;13.23;12.70;;;22.90;99.90;;;;;;4897864;29;20467;-73
2022/07/26 05:13:01;;;;;;;12.07;11.57;;;23.30;99.90;;;;;;4898071;29;20551;-72
2022/07/26 05:15:28;;;;;;;13.73;13.03;;;23.50;99.90;;;;;;4898044;29;20451;-72
2022/07/26 05:17:56;;;;;;;12.80;12.30;;;23.50;99.90;;;;;;4898020;29;20459;-72
2022/07/26 05:20:23;;;;;;;12.67;12.17;;;23.70;99.90;;;;;;4897690;29;20459;-72
2022/07/26 05:22:49;;;;;;;13.10;12.60;;;23.70;99.90;;;;;;4897205;29;21269;-72
2022/07/26 05:25:17;;;;;;;13.20;12.70;;;23.70;99.90;;;;;;4897846;29;20498;-72
2022/07/26 05:27:44;;;;;;;13.87;12.90;;;23.80;99.90;;;;;;4897504;29;20467;-72
2022/07/26 05:30:11;;;;;;;13.20;12.40;;;23.80;99.90;;;;;;4897687;29;20462;-73
2022/07/26 05:32:38;;;;;;;13.53;12.87;;;23.80;99.90;;;;;;4897357;29;20466;-72
2022/07/26 05:35:06;;;;;;;13.53;12.87;;;24.00;99.90;;;;;;4897580;29;20455;-73
2022/07/26 05:37:33;;;;;;;13.40;12.90;;;24.40;99.90;;;;;;4897426;29;20463;-75
2022/07/26 05:40:00;;;;;;;14.27;13.67;;;24.70;99.90;;;;;;4897281;29;20455;-76
2022/07/26 05:42:28;;;;;;;14.20;13.47;;;25.00;99.90;;;;;;4897951;29;20460;-78
2022/07/26 05:44:54;;;;;;;13.63;13.13;;;25.70;99.90;;;;;;4899295;29;20451;-77
2022/07/26 05:47:21;;;;;;;13.03;12.53;;;26.40;99.90;;;;;;4898366;29;20460;-75
2022/07/26 05:49:48;;;;;;;14.40;13.70;;;27.20;98.00;;;;;;4900011;29;20455;-80
2022/07/26 05:52:14;;;;;;;13.40;12.77;;;27.50;97.30;;;;;;4900288;29;20459;-79
2022/07/26 05:54:41;;;;;;;13.80;13.27;;;28.00;95.80;;;;;;4908202;29;20448;-80
2022/07/26 05:57:08;;;;;;;13.77;13.17;;;27.70;95.60;;;;;;4915176;29;20822;-78
2022/07/26 05:59:36;;;;;;;14.70;13.60;;;26.90;96.70;;;;;;4903125;29;20455;-76
2022/07/26 06:02:03;;;;;;;14.07;13.27;;;26.00;98.80;;;;;;4897965;29;20610;-75
2022/07/26 06:04:29;;;;;;;14.77;14.07;;;25.50;99.50;;;;;;4895675;29;20957;-75
2022/07/26 06:06:56;;;;;;;14.40;13.40;;;24.80;99.90;;;;;;4894801;29;20519;-75
2022/07/26 06:09:23;;;;;;;14.10;13.50;;;24.60;99.90;;;;;;4897705;29;20470;-72
2022/07/26 06:11:50;;;;;;;13.97;13.30;;;25.30;99.90;;;;;;4897592;29;20459;-74
2022/07/26 06:14:17;;;;;;;14.23;13.17;;;25.90;99.40;;;;;;4897570;29;20467;-74
2022/07/26 06:16:45;;;;;;;13.80;13.20;;;26.40;98.20;;;;;;4897917;29;20459;-74
2022/07/26 06:19:12;;;;;;;14.70;14.00;;;26.80;97.30;;;;;;4897832;29;20455;-75
2022/07/26 06:21:38;;;;;;;14.13;13.43;;;27.10;95.80;;;;;;4897807;29;20479;-75
2022/07/26 06:24:06;;;;;;;14.67;13.93;;;27.40;95.40;;;;;;4910010;29;20858;-76
2022/07/26 06:26:32;;;;;;;14.43;13.80;;;27.60;94.50;;;;;;4916619;29;21086;-75
2022/07/26 06:29:00;;;;;;;14.47;13.87;;;28.00;94.40;;;;;;4916509;29;20454;-75
2022/07/26 06:31:27;;;;;;;13.73;13.00;;;28.40;92.10;;;;;;4916420;29;20462;-75
2022/07/26 06:33:55;;;;;;;15.03;14.13;;;29.00;91.10;;;;;;4916257;29;20899;-75
2022/07/26 06:36:21;;;;;;;13.50;12.90;;;29.50;89.30;;;;;;4916062;29;20953;-81
2022/07/26 06:38:48;;;;;;;14.77;13.97;;;29.20;85.00;;;;;;4916173;29;20501;-76
2022/07/26 06:41:15;;;;;;;14.13;13.43;;;29.60;83.50;;;;;;4916373;29;20465;-85
2022/07/26 06:43:42;;;;;;;14.67;13.83;;;29.70;82.50;;;;;;4916272;29;20827;-75
2022/07/26 06:46:08;;;;;;;13.73;12.97;;;29.80;79.70;;;;;;4916042;29;20493;-74
2022/07/26 06:48:35;;;;;;;13.10;12.60;;;29.60;79.90;;;;;;4916215;29;20466;-75
2022/07/26 06:51:03;;;;;;;13.10;12.50;;;29.50;78.20;;;;;;4915717;29;20899;-75
2022/07/26 06:53:30;;;;;;;13.50;12.87;;;29.50;76.80;;;;;;4915857;29;20788;-75
2022/07/26 06:55:57;;;;;;;13.50;12.70;;;29.40;77.20;;;;;;4915655;29;20465;-76
2022/07/26 06:58:24;;;;;;;14.70;14.00;;;29.70;76.00;;;;;;4916061;29;20530;-75
2022/07/26 07:00:51;;;;;;;14.13;13.53;;;30.10;75.00;;;;;;4915457;29;20805;-73
2022/07/26 07:03:17;;;;;;;16.27;15.50;;;30.80;73.40;;;;;;4915899;29;20459;-76
2022/07/26 07:05:44;;;;;;;14.40;13.70;;;31.10;70.10;;;;;;4915524;29;20502;-75
2022/07/26 07:08:12;;;;;;;14.57;13.70;;;30.60;71.20;;;;;;4915723;29;20462;-75
2022/07/26 07:10:39;;;;;;;13.43;12.83;;;30.40;71.10;;;;;;4915461;29;20462;-76
2022/07/26 07:13:05;;;;;;;13.80;13.20;;;30.60;69.30;;;;;;4915490;29;20465;-76
2022/07/26 07:15:32;;;;;;;13.13;12.63;;;30.80;66.10;;;;;;4915315;29;20462;-75
2022/07/26 07:17:59;;;;;;;12.70;12.20;;;30.70;66.20;;;;;;4915051;29;20948;-76
2022/07/26 07:20:27;;;;;;;13.10;12.60;;;30.10;66.30;;;;;;4915285;29;20462;-75
2022/07/26 07:22:53;;;;;;;13.40;12.70;;;29.70;67.50;;;;;;4901196;29;20555;-76
2022/07/26 07:25:21;;;;;;;13.30;12.70;;;29.90;66.30;;;;;;4896297;29;20930;-76
2022/07/26 07:27:48;;;;;;;14.23;13.43;;;30.50;65.60;;;;;;4896401;29;20490;-75
2022/07/26 07:30:15;;;;;;;14.00;13.10;;;31.00;64.30;;;;;;4896224;29;20971;-76
2022/07/26 07:32:42;;;;;;;14.07;13.47;;;31.40;63.00;;;;;;4896106;29;20523;-76
2022/07/26 07:35:09;;;;;;;13.50;12.80;;;31.60;60.60;;;;;;4896094;29;20451;-76
2022/07/26 07:37:36;;;;;;;15.00;14.13;;;31.60;61.40;;;;;;4895800;29;20459;-76
2022/07/26 07:40:06;;;;;;;14.30;13.70;;;32.00;60.20;;;;;;4895984;29;20815;-76
2022/07/26 07:42:34;;;;;;;14.37;13.73;;;31.60;58.80;;;;;;4895458;29;20459;-76
2022/07/26 07:45:01;;;;;;;14.17;13.50;;;31.40;58.50;;;;;;4895734;29;20490;-76
2022/07/26 07:47:27;;;;;;;14.27;13.50;;;31.90;58.00;;;;;;4895698;29;20495;-76
2022/07/26 07:49:54;;;;;;;13.63;12.93;;;32.00;58.60;;;;;;4895867;29;20840;-76
2022/07/26 07:52:21;;;;;;;14.93;14.30;;;31.70;56.80;;;;;;4895512;29;20467;-76
2022/07/26 07:54:47;;;;;;;12.30;11.90;;;31.50;56.80;;;;;;4895836;29;20466;-76
2022/07/26 07:57:14;;;;;;;13.63;12.73;;;31.50;57.60;;;;;;4895977;29;20459;-76
2022/07/26 07:59:42;;;;;;;15.07;14.20;;;32.40;56.30;;;;;;4896094;29;20463;-76
2022/07/26 08:02:11;;;;;;;13.00;12.50;;;33.00;55.40;;;;;;4895980;29;20462;-76
2022/07/26 08:04:38;;;;;;;16.30;14.63;;;32.90;54.70;;;;;;4895669;29;20459;-76
2022/07/26 08:07:04;;;;;;;14.70;13.90;;;33.20;54.90;;;;;;4895559;29;20498;-76
2022/07/26 08:09:31;;;;;;;14.13;13.43;;;33.00;54.70;;;;;;4895706;29;20459;-76
2022/07/26 08:11:58;;;;;;;13.23;12.60;;;32.30;55.10;;;;;;4895588;29;20451;-76
2022/07/26 08:14:25;;;;;;;13.23;12.63;;;31.80;54.90;;;;;;4896028;29;20463;-76
2022/07/26 08:16:53;;;;;;;13.37;12.87;;;31.60;56.40;;;;;;4895359;29;20455;-78
2022/07/26 08:19:19;;;;;;;13.63;13.07;;;31.70;56.30;;;;;;4895317;29;21253;-79
2022/07/26 08:22:28;;;;;;;13.07;12.57;;;32.20;54.30;;;;;;4895345;29;20571;-77
2022/07/26 08:24:55;;;;;;;12.97;12.47;;;32.80;54.50;;;;;;4912383;29;20814;-77
2022/07/26 08:28:06;;;;;;;14.10;13.50;;;33.50;51.10;;;;;;4913302;29;20502;-76
2022/07/26 08:30:33;;;;;;;13.37;12.73;;;33.90;51.50;;;;;;4907770;29;21204;-76
2022/07/26 08:33:01;;;;;;;14.13;13.20;;;33.60;51.60;;;;;;4917485;29;20454;-75
2022/07/26 08:35:29;;;;;;;14.63;13.77;;;32.90;51.60;;;;;;4917627;29;20465;-75
2022/07/26 08:37:56;;;;;;;14.30;13.70;;;33.50;52.20;;;;;;4917632;29;20948;-77
2022/07/26 08:40:23;;;;;;;14.20;13.50;;;33.50;50.40;;;;;;4917405;29;20465;-76
2022/07/26 08:42:50;;;;;;;13.80;13.10;;;32.60;51.90;;;;;;4917298;29;20465;-76
2022/07/26 08:45:21;;;;;;;14.67;13.90;;;32.10;52.80;;;;;;4917313;29;20465;-77
2022/07/26 08:47:48;;;;;;;13.53;13.03;;;31.20;54.40;;;;;;4917431;29;20532;-75
2022/07/26 08:50:17;;;;;;;12.90;12.40;;;31.80;53.10;;;;;;4917285;29;20454;-75
2022/07/26 08:52:43;;;;;;;13.30;12.80;;;32.50;52.20;;;;;;4917008;29;20454;-76
2022/07/26 08:55:11;;;;;;;13.80;13.30;;;33.80;50.80;;;;;;4917647;29;20466;-76
2022/07/26 08:57:38;;;;;;;13.23;12.73;;;34.40;49.20;;;;;;4915982;29;20450;-76
2022/07/26 09:00:16;;;;;;;13.13;12.57;;;34.30;49.70;;;;;;4917456;29;20462;-76
2022/07/26 09:02:43;;;;;;;13.30;12.80;;;33.70;48.90;;;;;;4917043;29;20464;-76
2022/07/26 09:05:10;;;;;;;13.60;13.00;;;32.50;49.80;;;;;;4917378;29;20454;-77
2022/07/26 09:07:39;;;;;;;14.40;13.80;;;31.70;51.20;;;;;;4916649;29;21015;-78
2022/07/26 09:10:08;;;;;;;14.30;12.90;;;31.30;52.10;;;;;;4917167;29;20454;-78
2022/07/26 09:12:35;;;;;;;13.43;12.83;;;30.90;52.30;;;;;;4916854;29;20458;-76
2022/07/26 09:15:04;;;;;;;14.00;13.30;;;31.60;52.00;;;;;;4916881;29;20461;-76
2022/07/26 09:17:39;;;;;;;13.67;12.97;;;32.70;49.70;;;;;;4917074;29;20451;-78
2022/07/26 09:20:08;;;;;;;14.50;13.90;;;33.40;49.10;;;;;;4917960;29;20457;-78
2022/07/26 09:22:36;;;;;;;13.67;12.97;;;33.70;48.30;;;;;;4916197;29;20486;-76
2022/07/26 09:25:20;;;;;;;15.17;14.47;;;32.20;50.40;;;;;;4899455;29;20953;-76
2022/07/26 09:27:47;;;;;;;14.07;13.07;;;30.90;52.50;;;;;;4902815;29;20522;-76
2022/07/26 09:30:14;;;;;;;12.23;11.83;;;30.30;53.40;;;;;;4891340;29;20459;-77
2022/07/26 09:32:54;;;;;;;12.37;11.70;;;29.90;54.30;;;;;;4898142;29;20460;-77
2022/07/26 09:35:21;;;;;;;13.60;13.07;;;30.60;53.30;;;;;;4896239;29;20469;-77
2022/07/26 09:37:48;;;;;;;14.90;14.40;;;31.40;51.80;;;;;;4897823;29;20451;-77
2022/07/26 09:40:17;;;;;;;14.80;13.93;;;31.10;53.10;;;;;;4897412;29;20466;-76
2022/07/26 09:42:54;;;;;;;14.67;13.87;;;30.40;53.20;;;;;;4897663;29;20466;-76
2022/07/26 09:45:21;;;;;;;14.53;13.83;;;29.90;54.70;;;;;;4897417;29;20455;-77
2022/07/26 09:47:48;;;;;;;14.13;13.53;;;30.50;54.60;;;;;;4897557;29;20638;-76
2022/07/26 09:50:16;;;;;;;13.80;13.00;;;31.40;53.40;;;;;;4897386;29;20456;-76
2022/07/26 09:52:58;;;;;;;14.10;13.40;;;31.10;53.10;;;;;;4897507;29;20472;-76
2022/07/26 09:55:26;;;;;;;12.30;11.90;;;30.20;53.80;;;;;;4897604;29;20462;-77
2022/07/26 09:57:53;;;;;;;13.90;13.20;;;29.70;54.80;;;;;;4897700;29;20455;-77
2022/07/26 10:00:20;;;;;;;14.00;13.13;;;30.20;55.10;;;;;;4897263;29;20459;-77
2022/07/26 10:02:47;;;;;;;12.43;11.93;;;30.90;54.30;;;;;;4896957;29;20960;-77
2022/07/26 10:05:14;;;;;;;14.17;13.37;;;30.30;53.90;;;;;;4896768;29;20962;-76
2022/07/26 10:07:41;;;;;;;13.40;12.80;;;29.80;54.50;;;;;;4897071;29;20495;-77
2022/07/26 10:10:12;;;;;;;12.80;12.30;;;29.90;55.80;;;;;;4897082;29;20447;-77
2022/07/26 10:12:42;;;;;;;12.80;12.20;;;31.40;53.60;;;;;;4897159;29;20466;-77
2022/07/26 10:15:33;;;;;;;13.30;12.70;;;32.50;51.10;;;;;;4897207;29;20464;-77
2022/07/26 10:18:00;;;;;;;13.97;13.47;;;33.10;50.80;;;;;;4896972;29;20451;-78
2022/07/26 10:20:48;;;;;;;13.43;13.03;;;33.70;48.50;;;;;;4897085;29;20467;-78
2022/07/26 10:23:33;;;;;;;14.07;13.50;;;33.40;49.20;;;;;;4896702;29;20495;-77
2022/07/26 10:26:00;;;;;;;13.90;13.40;;;32.50;50.00;;;;;;4896835;29;20486;-77
2022/07/26 10:28:29;;;;;;;14.93;14.23;;;31.30;51.60;;;;;;4896804;29;20491;-76
2022/07/26 10:31:30;;;;;;;13.67;12.97;;;30.30;53.80;;;;;;4897057;29;20455;-77
2022/07/26 10:33:58;;;;;;;13.60;13.00;;;30.70;53.70;;;;;;4897018;29;20819;-77
2022/07/26 10:36:32;;;;;;;13.93;13.13;;;31.60;52.30;;;;;;4897153;29;20455;-77
2022/07/26 10:39:05;;;;;;;12.37;11.97;;;32.10;52.30;;;;;;4896837;29;20451;-77
2022/07/26 10:41:35;;;;;;;13.97;13.47;;;32.20;51.80;;;;;;4896702;29;20459;-77
2022/07/26 10:44:25;;;;;;;13.60;13.00;;;32.80;51.00;;;;;;4896773;29;20474;-77
2022/07/26 10:47:16;;;;;;;14.07;13.37;;;32.40;50.40;;;;;;4896605;29;20499;-77
2022/07/26 10:49:53;;;;;;;13.10;12.60;;;32.10;51.00;;;;;;4896556;29;20530;-77
2022/07/26 10:52:22;;;;;;;12.77;12.37;;;32.80;50.70;;;;;;4895659;29;20447;-76
2022/07/26 10:55:19;;;;;;;13.50;12.90;;;31.80;51.50;;;;;;4896385;29;20462;-77
2022/07/26 10:57:48;;;;;;;13.80;13.20;;;31.60;51.60;;;;;;4896241;29;20459;-76
2022/07/26 11:00:24;;;;;;;14.60;13.70;;;32.10;51.90;;;;;;4896218;29;20467;-77
2022/07/26 11:02:57;;;;;;;13.70;13.20;;;32.90;50.60;;;;;;4895982;29;20463;-77
2022/07/26 11:05:29;;;;;;;13.57;12.87;;;33.40;48.80;;;;;;4896374;29;20451;-77
2022/07/26 11:08:00;;;;;;;12.77;12.33;;;32.00;49.90;;;;;;4896414;29;20554;-76
2022/07/26 11:10:29;;;;;;;13.57;12.90;;;31.00;51.60;;;;;;4896407;29;20492;-77
2022/07/26 11:13:05;;;;;;;13.10;12.60;;;31.10;52.20;;;;;;4896203;29;20455;-77
2022/07/26 11:15:35;;;;;;;13.00;12.50;;;32.00;50.90;;;;;;4896059;29;20801;-77
2022/07/26 11:18:14;;;;;;;12.80;12.13;;;33.00;49.00;;;;;;4896082;29;20635;-78
2022/07/26 11:20:43;;;;;;;12.37;11.87;;;32.90;49.50;;;;;;4896440;29;20455;-78
2022/07/26 11:23:30;;;;;;;14.20;13.70;;;33.30;48.00;;;;;;4901485;29;21021;-78
2022/07/26 11:26:08;;;;;;;12.70;12.30;;;33.20;47.90;;;;;;4915108;29;20458;-78
2022/07/26 11:28:59;;;;;;;14.07;13.47;;;33.10;48.40;;;;;;4914718;29;20494;-77
2022/07/26 11:31:34;;;;;;;13.30;12.80;;;32.20;48.30;;;;;;4905391;29;20461;-78
2022/07/26 11:34:02;;;;;;;14.17;13.47;;;31.40;50.20;;;;;;4914637;29;20538;-77
2022/07/26 11:36:34;;;;;;;13.37;12.87;;;31.80;49.50;;;;;;4914494;29;20454;-78
2022/07/26 11:39:02;;;;;;;14.53;14.03;;;32.20;49.20;;;;;;4914752;29;20453;-77
2022/07/26 11:41:30;;;;;;;12.23;11.70;;;33.20;47.40;;;;;;4914534;29;20461;-77
2022/07/26 11:43:58;;;;;;;13.00;12.60;;;33.40;47.00;;;;;;4914769;29;20486;-77
2022/07/26 11:46:35;;;;;;;13.03;12.50;;;32.50;48.00;;;;;;4915199;29;20481;-78
2022/07/26 11:49:04;;;;;;;13.43;12.83;;;32.40;48.30;;;;;;4914491;29;20848;-76
2022/07/26 11:51:31;;;;;;;12.23;11.83;;;32.40;47.90;;;;;;4914318;29;20463;-76
2022/07/26 11:54:01;;;;;;;14.40;13.80;;;32.30;47.50;;;;;;4914648;29;20454;-76
2022/07/26 11:56:29;;;;;;;13.67;13.07;;;32.40;47.90;;;;;;4914633;29;20455;-76
2022/07/26 11:58:57;;;;;;;12.70;12.30;;;32.20;47.70;;;;;;4914608;29;20509;-76
2022/07/26 12:01:25;;;;;;;13.10;12.33;;;32.20;47.10;;;;;;4914310;29;20873;-76
2022/07/26 12:03:55;;;;;;;12.63;11.90;;;30.90;49.20;;;;;;4913914;29;20461;-77
2022/07/26 12:06:23;;;;;;;14.27;13.67;;;31.20;49.00;;;;;;4913927;29;20817;-76
2022/07/26 12:08:52;;;;;;;14.10;13.60;;;31.90;48.20;;;;;;4913847;29;20505;-76
2022/07/26 12:11:20;;;;;;;14.17;13.50;;;32.60;47.20;;;;;;4914216;29;20457;-76
2022/07/26 12:13:53;;;;;;;13.80;13.30;;;32.40;47.10;;;;;;4914395;29;20462;-77
2022/07/26 12:16:40;;;;;;;13.80;13.40;;;32.00;47.70;;;;;;4914044;29;20462;-77
2022/07/26 12:19:11;;;;;;;12.90;12.50;;;32.40;46.80;;;;;;4914067;29;20462;-78
2022/07/26 12:21:40;;;;;;;12.50;12.10;;;32.70;46.60;;;;;;4914069;29;20501;-77
2022/07/26 12:24:07;;;;;;;13.10;12.60;;;32.30;45.90;;;;;;4913840;29;20490;-77
2022/07/26 12:26:34;;;;;;;13.37;12.87;;;32.40;46.20;;;;;;4913846;29;20469;-77
2022/07/26 12:31:43;;;;;;;13.83;13.27;;;33.70;44.70;;;;;;4912986;29;20435;-78
2022/07/26 12:34:11;;;;;;;13.80;13.20;;;34.00;43.70;;;;;;4914337;29;20454;-78
2022/07/26 12:36:38;;;;;;;13.50;12.73;;;33.40;44.10;;;;;;4914548;29;20465;-76
2022/07/26 12:39:05;;;;;;;13.00;12.50;;;33.30;44.10;;;;;;4914096;29;20453;-76
2022/07/26 12:41:33;;;;;;;14.20;13.50;;;33.40;43.90;;;;;;4913935;29;20659;-76
2022/07/26 12:44:00;;;;;;;13.60;13.10;;;33.10;43.30;;;;;;4914286;29;20454;-77
2022/07/26 12:46:27;;;;;;;14.10;13.37;;;32.20;44.20;;;;;;4914728;29;20461;-76
2022/07/26 12:48:54;;;;;;;12.80;12.27;;;32.90;44.00;;;;;;4914585;29;20482;-77
2022/07/26 12:51:22;;;;;;;13.63;12.93;;;33.60;43.60;;;;;;4916622;29;20470;-76
2022/07/26 12:53:48;;;;;;;14.33;13.70;;;33.70;42.60;;;;;;4914963;29;20517;-77
2022/07/26 12:56:15;;;;;;;13.50;13.00;;;34.20;41.80;;;;;;4913704;29;20458;-77
2022/07/26 12:58:42;;;;;;;12.73;11.90;;;34.20;41.60;;;;;;4914076;29;20451;-76
2022/07/26 13:01:09;;;;;;;13.63;13.13;;;33.00;42.60;;;;;;4913916;29;20450;-76
2022/07/26 13:03:35;;;;;;;13.17;12.67;;;32.00;43.40;;;;;;4913646;29;20462;-77
2022/07/26 13:06:03;;;;;;;13.50;13.00;;;31.90;44.10;;;;;;4913277;29;20458;-76
2022/07/26 13:08:31;;;;;;;12.77;12.30;;;32.30;43.60;;;;;;4913523;29;20490;-76
2022/07/26 13:10:57;;;;;;;13.50;12.90;;;32.50;43.50;;;;;;4913548;29;20469;-76
2022/07/26 13:13:24;;;;;;;14.07;13.33;;;33.10;43.00;;;;;;4913828;29;20457;-77
2022/07/26 13:15:51;;;;;;;13.73;13.13;;;33.30;42.90;;;;;;4914973;29;21106;-77
2022/07/26 13:18:18;;;;;;;13.07;12.60;;;32.90;43.60;;;;;;4916857;29;20478;-77
2022/07/26 13:20:44;;;;;;;13.90;13.30;;;33.60;42.30;;;;;;4916785;29;20465;-77
2022/07/26 13:23:11;;;;;;;14.23;13.67;;;34.30;41.90;;;;;;4915056;29;20845;-78
2022/07/26 13:25:39;;;;;;;13.67;13.17;;;34.30;41.30;;;;;;4917254;29;21016;-77
2022/07/26 13:28:06;;;;;;;13.07;12.67;;;33.60;40.30;;;;;;4916816;29;20490;-77
2022/07/26 13:30:33;;;;;;;13.43;12.93;;;33.50;41.00;;;;;;4917044;29;20454;-77
2022/07/26 13:33:00;;;;;;;12.10;11.70;;;33.10;41.10;;;;;;4916885;29;20834;-78
2022/07/26 13:35:26;;;;;;;13.67;13.17;;;33.90;40.20;;;;;;4917021;29;20458;-78
2022/07/26 13:37:53;;;;;;;13.80;13.27;;;34.50;40.50;;;;;;4917079;29;20453;-77
2022/07/26 13:40:20;;;;;;;13.57;13.07;;;34.40;40.30;;;;;;4916835;29;20457;-76
2022/07/26 13:42:49;;;;;;;13.20;12.80;;;34.20;40.10;;;;;;4916778;29;20553;-77
2022/07/26 13:45:16;;;;;;;13.40;13.00;;;34.40;40.20;;;;;;4916850;29;20458;-77
2022/07/26 13:47:43;;;;;;;14.10;13.50;;;34.40;38.90;;;;;;4916802;29;20465;-77
2022/07/26 13:50:10;;;;;;;13.50;12.90;;;33.20;40.70;;;;;;4916835;29;20458;-77
2022/07/26 13:52:38;;;;;;;12.53;12.13;;;32.80;41.10;;;;;;4916860;29;20488;-77
2022/07/26 13:55:05;;;;;;;13.53;13.03;;;32.40;41.50;;;;;;4909951;29;20462;-77
2022/07/26 13:57:32;;;;;;;13.70;12.80;;;31.00;42.20;;;;;;4917181;29;20462;-76
2022/07/26 14:00:00;;;;;;;12.03;11.63;;;30.10;44.50;;;;;;4917397;29;20458;-78
2022/07/26 14:02:27;;;;;;;13.10;12.60;;;30.10;45.70;;;;;;4917061;29;20454;-77
2022/07/26 14:04:53;;;;;;;12.33;11.93;;;30.90;44.70;;;;;;4917095;29;20461;-76
2022/07/26 14:07:20;;;;;;;12.93;12.43;;;30.60;44.40;;;;;;4917053;29;20463;-78
2022/07/26 14:09:47;;;;;;;13.67;13.07;;;30.50;45.00;;;;;;4917376;29;20764;-77
2022/07/26 14:12:14;;;;;;;12.80;12.30;;;30.90;44.80;;;;;;4914430;29;20458;-76
2022/07/26 14:14:40;;;;;;;12.33;11.80;;;30.50;44.90;;;;;;4908550;29;20446;-77
2022/07/26 14:17:09;;;;;;;12.37;11.97;;;30.00;45.00;;;;;;4907737;29;20533;-76
2022/07/26 14:19:36;;;;;;;12.93;12.53;;;30.10;45.80;;;;;;4906930;29;20435;-75
2022/07/26 14:22:02;;;;;;;12.67;12.17;;;30.60;44.90;;;;;;4908742;29;20554;-77
2022/07/26 14:24:29;;;;;;;13.23;12.83;;;30.30;45.30;;;;;;4909471;29;20483;-76
2022/07/26 14:26:56;;;;;;;13.27;12.67;;;29.50;45.70;;;;;;4905481;29;20458;-77
2022/07/26 14:29:23;;;;;;;13.37;12.80;;;29.20;46.50;;;;;;4905956;29;20483;-77
2022/07/26 14:31:49;;;;;;;13.80;13.00;;;29.30;46.80;;;;;;4906800;29;20462;-77
2022/07/26 14:34:17;;;;;;;13.53;12.77;;;29.70;46.10;;;;;;4908771;29;20465;-79
2022/07/26 14:36:44;;;;;;;11.73;11.13;;;30.40;44.60;;;;;;4909254;29;20451;-76
2022/07/26 14:39:11;;;;;;;12.90;12.30;;;30.90;43.60;;;;;;4906475;29;20446;-77
2022/07/26 14:41:38;;;;;;;12.57;12.10;;;31.90;43.30;;;;;;4907777;29;20439;-76
2022/07/26 14:44:05;;;;;;;12.20;11.80;;;31.70;41.90;;;;;;4905599;29;20455;-77
2022/07/26 14:46:32;;;;;;;12.37;11.90;;;31.10;43.20;;;;;;4905918;29;20471;-76
2022/07/26 14:48:58;;;;;;;12.63;12.13;;;30.10;44.30;;;;;;4904765;29;21035;-78
2022/07/26 14:51:26;;;;;;;11.60;11.20;;;29.60;45.50;;;;;;4906488;29;20450;-77
2022/07/26 14:53:53;;;;;;;11.60;11.20;;;29.60;45.20;;;;;;4906533;29;20922;-76
2022/07/26 14:56:20;;;;;;;12.53;12.00;;;29.50;45.30;;;;;;4909468;29;20454;-77
2022/07/26 14:58:47;;;;;;;12.00;11.60;;;29.50;44.60;;;;;;4904561;29;20446;-76
2022/07/26 15:01:13;;;;;;;12.30;11.70;;;29.20;45.70;;;;;;4910826;29;20454;-77
2022/07/26 15:03:40;;;;;;;12.50;12.10;;;28.90;46.00;;;;;;4915873;29;20976;-76
2022/07/26 15:06:07;;;;;;;12.17;11.67;;;28.90;46.00;;;;;;4915637;29;20466;-77
2022/07/26 15:08:35;;;;;;;11.27;10.87;;;29.10;45.50;;;;;;4915156;29;20848;-77
2022/07/26 15:11:04;;;;;;;12.73;12.23;;;29.20;45.60;;;;;;4915491;29;20852;-76
2022/07/26 15:13:31;;;;;;;12.80;12.27;;;29.10;45.90;;;;;;4915268;29;20466;-76
2022/07/26 15:15:57;;;;;;;11.93;11.43;;;29.00;45.30;;;;;;4915594;29;20458;-77
2022/07/26 15:18:24;;;;;;;13.27;12.77;;;28.90;45.00;;;;;;4915501;29;20457;-76
2022/07/26 15:20:51;;;;;;;12.10;11.70;;;28.90;45.90;;;;;;4915314;29;20461;-77
2022/07/26 15:23:18;;;;;;;11.50;11.10;;;28.90;46.30;;;;;;4914865;29;20494;-78
2022/07/26 15:25:47;;;;;;;13.63;12.93;;;28.80;46.50;;;;;;4914993;29;20469;-77
2022/07/26 15:28:14;;;;;;;12.70;12.10;;;28.50;46.90;;;;;;4915265;29;20462;-77
2022/07/26 15:30:40;;;;;;;13.23;12.63;;;28.60;46.20;;;;;;4915325;29;20458;-76
2022/07/26 15:33:07;;;;;;;12.63;12.23;;;28.60;46.30;;;;;;4915052;29;20457;-76
2022/07/26 15:35:35;;;;;;;11.80;11.30;;;28.50;46.60;;;;;;4915162;29;20459;-75
2022/07/26 15:38:03;;;;;;;12.83;12.20;;;28.50;47.10;;;;;;4914423;29;20597;-76
2022/07/26 15:40:29;;;;;;;11.80;11.40;;;28.40;46.90;;;;;;4914698;29;20848;-76
2022/07/26 15:42:57;;;;;;;12.07;11.67;;;28.30;47.00;;;;;;4914700;29;20949;-76
2022/07/26 15:45:24;;;;;;;11.80;11.40;;;28.20;47.40;;;;;;4915106;29;20450;-78
2022/07/26 15:47:51;;;;;;;12.37;11.90;;;28.00;47.80;;;;;;4914470;29;20814;-77
2022/07/26 15:50:18;;;;;;;12.03;11.53;;;28.00;48.50;;;;;;4914051;29;20517;-74
2022/07/26 15:52:46;;;;;;;12.50;12.10;;;28.10;48.80;;;;;;4914316;29;20466;-77
2022/07/26 15:55:15;;;;;;;11.17;10.70;;;28.30;48.60;;;;;;4914384;29;20461;-75
2022/07/26 15:57:42;;;;;;;12.63;12.03;;;28.10;48.80;;;;;;4914494;29;20830;-76
2022/07/26 16:00:12;;;;;;;12.10;11.60;;;27.90;49.20;;;;;;4914623;29;20477;-77